TimePST,TemperatureF,Dew PointF,Humidity,Sea Level PressureIn,VisibilityMPH,Wind Direction,Wind SpeedMPH,Gust SpeedMPH,PrecipitationIn,Events,Conditions,WindDirDegrees,DateUTC
12:53 AM,48.0,44.1,86,30.22,10.0,ENE,4.6,-,N/A,,Clear,70,2012-11-22 08:53:00
1:53 AM,46.9,43.0,86,30.21,10.0,ENE,3.5,-,N/A,,Clear,60,2012-11-22 09:53:00
2:53 AM,45.0,43.0,93,30.22,10.0,NE,3.5,-,N/A,,Clear,40,2012-11-22 10:53:00
3:53 AM,46.0,43.0,89,30.21,10.0,East,3.5,-,N/A,,Clear,80,2012-11-22 11:53:00
4:53 AM,46.9,43.0,86,30.21,10.0,NNW,3.5,-,N/A,,Partly Cloudy,330,2012-11-22 12:53:00
5:53 AM,45.0,42.1,90,30.23,10.0,Calm,Calm,-,N/A,,Clear,0,2012-11-22 13:53:00
6:53 AM,44.1,41.0,89,30.24,10.0,NE,4.6,-,N/A,,Partly Cloudy,50,2012-11-22 14:53:00
7:53 AM,46.9,45.0,93,30.26,10.0,Calm,Calm,-,N/A,,Partly Cloudy,0,2012-11-22 15:53:00
8:53 AM,54.0,46.9,77,30.28,10.0,Calm,Calm,-,N/A,,Partly Cloudy,0,2012-11-22 16:53:00
9:53 AM,55.9,48.0,75,30.28,10.0,Calm,Calm,-,N/A,,Scattered Clouds,0,2012-11-22 17:53:00
10:53 AM,57.9,46.9,67,30.27,10.0,West,6.9,-,N/A,,Partly Cloudy,280,2012-11-22 18:53:00
11:53 AM,59.0,44.1,58,30.25,10.0,West,6.9,-,N/A,,Partly Cloudy,260,2012-11-22 19:53:00
12:53 PM,60.1,46.9,62,30.22,10.0,West,6.9,-,N/A,,Partly Cloudy,260,2012-11-22 20:53:00
1:53 PM,62.1,48.0,60,30.21,10.0,West,6.9,-,N/A,,Scattered Clouds,270,2012-11-22 21:53:00
2:53 PM,63.0,45.0,52,30.20,10.0,West,6.9,-,N/A,,Mostly Cloudy,270,2012-11-22 22:53:00
3:53 PM,63.0,48.0,58,30.20,10.0,WNW,8.1,-,N/A,,Scattered Clouds,290,2012-11-22 23:53:00
4:53 PM,60.1,50.0,69,30.20,10.0,NW,6.9,-,N/A,,Scattered Clouds,310,2012-11-23 00:53:00
5:53 PM,59.0,50.0,72,30.21,10.0,NW,3.5,-,N/A,,Scattered Clouds,310,2012-11-23 01:53:00
6:53 PM,57.0,48.0,72,30.22,10.0,Calm,Calm,-,N/A,,Partly Cloudy,0,2012-11-23 02:53:00
7:53 PM,54.0,48.9,83,30.23,10.0,Calm,Calm,-,N/A,,Partly Cloudy,0,2012-11-23 03:53:00
8:53 PM,51.1,46.9,86,30.23,10.0,East,3.5,-,N/A,,Partly Cloudy,80,2012-11-23 04:53:00
9:53 PM,51.1,46.0,83,30.24,10.0,Calm,Calm,-,N/A,,Partly Cloudy,0,2012-11-23 05:53:00
10:53 PM,50.0,45.0,83,30.24,10.0,Calm,Calm,-,N/A,,Partly Cloudy,0,2012-11-23 06:53:00
11:53 PM,50.0,46.0,86,30.24,10.0,Calm,Calm,-,N/A,,Partly Cloudy,0,2012-11-23 07:53:00